ムンバイ の空港の天気 - METARとTAF

チャットラパティー・シヴァージー国際空港 ( VABB / BOM ) - インド ムンバイ
飛行場実況気象(Metar)
観測時間10/15 22:30 IST (10/15 17:00 UTC)
風向・風速北東 3m/s
視程3000m
天気現象
なし
気温32℃
湿度52%
気圧1011hPa
METARVABB 151700Z 04006KT 3000 FU NSC 32/21 Q1011 NOSIG
過去の天気等 Google飛行場航空写真 Wunderground天気予報

過去48時間のMETAR

飛行場予報(TAF)
発表時間: 10/15 22:30 IST (10/15 17:00 UTC)
予報対象時間: 15日23時 IST ~ 17日5時 IST
風向・風速北東 3m/s
視程3000m
天気現象
少しの雲 雲底高度 610m
全天の4割程度の雲 雲底高度 3050m
16日5時 IST ~ 16日7時 IST に徐々に
風向・風速静穏
視程2000m
天気現象もや 煙霧
16日8時 IST ~ 16日10時 IST に徐々に
風向・風速東 4m/s
視程3000m
天気現象
16日14時 IST ~ 16日16時 IST に徐々に
風向・風速西北西 4m/s
視程4000m
天気現象
16日20時 IST ~ 16日22時 IST に徐々に
風向・風速東 3m/s
視程3000m
天気現象
TAF VABB 151700Z 1518/1624 05005KT 3000 FU FEW020 SCT100
BECMG 1600/1602 00000KT 2000 BR HZ
BECMG 1603/1605 09008KT 3000 FU
BECMG 1609/1611 30008KT 4000 FU
BECMG 1615/1617 09005KT 3000 FU